Time;durP1;ratioP1;P1;durP2;ratioP2;P2;SDS_P1;SDS_P2;PMS_P1;PMS_P2;Temp;Humidity;BMP_temperature;BMP_pressure;BME280_temperature;BME280_humidity;BME280_pressure;Samples;Min_cycle;Max_cycle;Signal;HPM_P1;HPM_P2
2021/03/07 00:00:08;;;;;;;16.40;9.37;;;-0.30;73.40;;;;;;6185415;28;20138;-79
2021/03/07 00:03:09;;;;;;;13.03;9.57;;;-0.30;72.80;;;;;;6194948;28;20050;-79
2021/03/07 00:06:12;;;;;;;10.33;8.00;;;-0.20;72.10;;;;;;6204728;28;20057;-78
2021/03/07 00:09:13;;;;;;;12.43;9.00;;;-0.10;71.90;;;;;;6206686;28;20050;-78
2021/03/07 00:12:14;;;;;;;11.60;8.23;;;-0.10;71.80;;;;;;6206336;28;20115;-79
2021/03/07 00:15:17;;;;;;;15.53;10.90;;;-0.10;72.00;;;;;;6199628;28;20062;-79
2021/03/07 00:18:18;;;;;;;13.70;9.03;;;-0.10;72.00;;;;;;6200392;28;20078;-79
2021/03/07 00:21:20;;;;;;;21.03;10.57;;;-0.10;71.80;;;;;;6193328;28;20023;-78
2021/03/07 00:24:22;;;;;;;16.63;11.30;;;-0.10;72.10;;;;;;6181416;28;20633;-80
2021/03/07 00:27:23;;;;;;;12.53;10.30;;;-0.10;72.30;;;;;;6183445;28;20086;-79
2021/03/07 00:30:25;;;;;;;12.33;9.20;;;-0.20;72.30;;;;;;6183489;28;20078;-80
2021/03/07 00:33:26;;;;;;;14.13;11.57;;;-0.20;72.70;;;;;;6171390;28;20051;-81
2021/03/07 00:36:28;;;;;;;11.80;10.53;;;-0.30;72.60;;;;;;6175267;28;20066;-79
2021/03/07 00:39:30;;;;;;;12.37;9.63;;;-0.30;73.30;;;;;;6175287;28;20055;-79
2021/03/07 00:42:31;;;;;;;13.60;9.27;;;-0.50;74.40;;;;;;6177992;23;20047;-77
2021/03/07 00:45:33;;;;;;;13.30;9.10;;;-0.50;74.40;;;;;;6173217;28;20050;-75
2021/03/07 00:48:35;;;;;;;11.90;9.60;;;-0.60;74.90;;;;;;6138812;28;20055;-76
2021/03/07 00:51:37;;;;;;;12.40;8.70;;;-0.70;75.30;;;;;;6102088;29;20072;-77
2021/03/07 00:54:38;;;;;;;12.23;9.43;;;-0.80;75.90;;;;;;6103000;29;20059;-77
2021/03/07 00:57:40;;;;;;;14.47;10.20;;;-0.90;76.20;;;;;;6115498;29;20095;-77
2021/03/07 01:00:45;;;;;;;10.27;8.17;;;-0.90;76.10;;;;;;6126651;28;20047;-76
2021/03/07 01:03:47;;;;;;;14.13;8.43;;;-0.90;75.30;;;;;;6146402;28;20063;-77
2021/03/07 01:06:49;;;;;;;8.97;7.97;;;-0.80;75.10;;;;;;6147061;28;20122;-76
2021/03/07 01:09:50;;;;;;;13.93;8.57;;;-0.80;74.90;;;;;;6128011;28;20048;-76
2021/03/07 01:12:52;;;;;;;14.13;7.87;;;-0.70;74.60;;;;;;6133542;28;20071;-77
2021/03/07 01:15:53;;;;;;;11.67;9.27;;;-0.70;74.60;;;;;;6140855;28;20049;-76
2021/03/07 01:18:55;;;;;;;12.23;8.27;;;-0.60;73.70;;;;;;6126319;29;20083;-76
2021/03/07 01:21:57;;;;;;;9.90;8.20;;;-0.60;73.40;;;;;;6125117;28;20393;-77
2021/03/07 01:24:58;;;;;;;13.53;7.93;;;-0.60;73.10;;;;;;6125678;28;20109;-77
2021/03/07 01:28:00;;;;;;;10.60;8.20;;;-0.50;73.00;;;;;;6125489;28;20502;-77
2021/03/07 01:31:02;;;;;;;11.13;8.07;;;-0.50;72.70;;;;;;6126293;29;20056;-77
2021/03/07 01:34:04;;;;;;;12.23;8.37;;;-0.50;73.10;;;;;;6125034;28;20051;-77
2021/03/07 01:37:06;;;;;;;13.67;8.43;;;-0.50;73.10;;;;;;6125052;28;20043;-77
2021/03/07 01:40:10;;;;;;;14.87;9.00;;;-0.50;73.20;;;;;;6132323;28;20054;-77
2021/03/07 01:43:13;;;;;;;10.53;7.83;;;-0.60;73.80;;;;;;6149440;28;20406;-77
2021/03/07 01:46:17;;;;;;;10.70;8.67;;;-0.70;74.40;;;;;;6127851;28;20502;-76
2021/03/07 01:49:18;;;;;;;11.43;8.40;;;-0.80;74.90;;;;;;6126169;28;20052;-76
2021/03/07 01:52:21;;;;;;;11.77;8.60;;;-0.80;75.00;;;;;;6132051;28;20071;-76
2021/03/07 01:55:25;;;;;;;13.57;8.37;;;-0.80;75.00;;;;;;6150944;28;20113;-76
2021/03/07 01:58:28;;;;;;;13.10;8.63;;;-0.80;75.00;;;;;;6148171;28;20105;-76
2021/03/07 02:01:30;;;;;;;11.00;8.63;;;-0.80;75.30;;;;;;6153041;28;20051;-76
2021/03/07 02:04:31;;;;;;;12.77;6.77;;;-0.90;75.50;;;;;;6145079;28;20070;-77
2021/03/07 02:07:34;;;;;;;10.43;7.87;;;-0.90;75.20;;;;;;6143721;28;20055;-75
2021/03/07 02:10:38;;;;;;;12.57;8.13;;;-0.80;74.80;;;;;;6134908;28;20079;-76
2021/03/07 02:13:42;;;;;;;11.90;8.37;;;-0.70;74.80;;;;;;6129310;28;20052;-76
2021/03/07 02:16:44;;;;;;;13.10;7.90;;;-0.80;75.50;;;;;;6129331;28;20048;-76
2021/03/07 02:19:46;;;;;;;12.73;6.93;;;-0.90;75.50;;;;;;6129193;28;20146;-76
2021/03/07 02:22:55;;;;;;;11.37;8.30;;;-1.00;75.50;;;;;;6129300;29;20513;-76
2021/03/07 02:25:58;;;;;;;10.10;8.23;;;-1.00;75.80;;;;;;6146989;28;20524;-76
2021/03/07 02:29:00;;;;;;;11.63;7.63;;;-1.00;75.90;;;;;;6149148;28;20529;-76
2021/03/07 02:32:06;;;;;;;15.07;9.10;;;-1.10;76.10;;;;;;6128820;28;20139;-76
2021/03/07 02:35:13;;;;;;;9.73;7.13;;;-1.00;76.30;;;;;;6128836;29;20844;-76
2021/03/07 02:38:17;;;;;;;10.70;6.17;;;-1.10;76.00;;;;;;6152546;28;20130;-76
2021/03/07 02:41:20;;;;;;;10.87;6.47;;;-1.00;75.50;;;;;;6162606;28;20059;-76
2021/03/07 02:44:24;;;;;;;9.50;6.73;;;-0.90;74.80;;;;;;6151991;28;20043;-76
2021/03/07 02:47:27;;;;;;;6.23;4.97;;;-0.80;73.60;;;;;;6169171;28;20055;-76
2021/03/07 02:50:31;;;;;;;11.10;6.80;;;-0.70;72.90;;;;;;6176198;28;20499;-75
2021/03/07 02:53:33;;;;;;;7.33;5.87;;;-0.60;73.30;;;;;;6175828;28;20054;-76
2021/03/07 02:56:38;;;;;;;6.47;5.73;;;-0.60;73.30;;;;;;6175530;28;20420;-76
2021/03/07 02:59:41;;;;;;;7.07;5.30;;;-0.60;73.40;;;;;;6158512;28;20046;-76
2021/03/07 03:02:44;;;;;;;8.63;5.40;;;-0.70;73.20;;;;;;6152293;28;20059;-76
2021/03/07 03:05:47;;;;;;;6.77;5.00;;;-0.60;72.70;;;;;;6153941;28;20420;-77
2021/03/07 03:08:52;;;;;;;5.90;5.27;;;-0.50;72.20;;;;;;6153628;28;20501;-76
2021/03/07 03:11:57;;;;;;;6.63;5.83;;;-0.50;72.00;;;;;;6175578;28;20050;-76
2021/03/07 03:14:59;;;;;;;7.50;6.07;;;-0.50;72.10;;;;;;6153963;28;20057;-77
2021/03/07 03:18:02;;;;;;;7.20;5.27;;;-0.60;72.70;;;;;;6159154;28;20058;-76
2021/03/07 03:21:07;;;;;;;8.10;7.00;;;-0.70;73.20;;;;;;6151681;28;20589;-77
2021/03/07 03:24:10;;;;;;;6.13;5.13;;;-0.70;72.80;;;;;;6151381;28;20138;-77
2021/03/07 03:27:13;;;;;;;7.27;6.33;;;-0.70;72.70;;;;;;6151825;28;20047;-76
2021/03/07 03:30:17;;;;;;;7.17;5.10;;;-0.60;72.80;;;;;;6156416;28;20117;-76
2021/03/07 03:33:19;;;;;;;7.33;5.20;;;-0.60;72.70;;;;;;6150956;28;20051;-76
2021/03/07 03:36:20;;;;;;;9.47;7.47;;;-0.70;73.10;;;;;;6150345;28;20576;-76
2021/03/07 03:39:23;;;;;;;17.63;7.00;;;-0.70;74.20;;;;;;6161281;28;20583;-76
2021/03/07 03:42:26;;;;;;;10.10;6.37;;;-0.80;74.70;;;;;;6151344;29;20058;-77
2021/03/07 03:45:29;;;;;;;10.10;7.00;;;-0.90;74.60;;;;;;6150533;28;20055;-76
2021/03/07 03:48:34;;;;;;;6.73;6.03;;;-1.10;74.80;;;;;;6150903;28;20069;-76
2021/03/07 03:51:39;;;;;;;6.70;5.23;;;-1.20;75.70;;;;;;6150522;28;20047;-76
2021/03/07 03:54:45;;;;;;;10.60;7.33;;;-1.30;76.40;;;;;;6153247;28;20077;-76
2021/03/07 03:57:51;;;;;;;10.63;6.33;;;-1.50;77.40;;;;;;6149982;28;20510;-76
2021/03/07 04:00:54;;;;;;;12.27;7.53;;;-1.50;77.80;;;;;;6150472;28;20420;-77
2021/03/07 04:03:56;;;;;;;10.67;6.00;;;-1.70;77.70;;;;;;6153048;28;20100;-76
2021/03/07 04:06:58;;;;;;;10.00;6.93;;;-1.80;77.70;;;;;;6174658;28;20051;-76
2021/03/07 04:10:01;;;;;;;10.43;6.63;;;-1.80;77.90;;;;;;6167892;28;20045;-76
2021/03/07 04:13:04;;;;;;;8.70;6.43;;;-1.90;78.00;;;;;;6149513;28;20094;-76
2021/03/07 04:16:06;;;;;;;10.90;7.53;;;-2.00;78.20;;;;;;6169598;28;20067;-76
2021/03/07 04:19:07;;;;;;;9.80;7.23;;;-2.00;78.50;;;;;;6168826;28;20057;-76
2021/03/07 04:22:09;;;;;;;8.20;6.73;;;-2.10;78.60;;;;;;6171718;28;20065;-76
2021/03/07 04:25:11;;;;;;;8.40;6.43;;;-2.10;78.70;;;;;;6150180;28;20050;-76
2021/03/07 04:28:13;;;;;;;7.40;6.27;;;-2.20;79.00;;;;;;6150489;28;20134;-76
2021/03/07 04:31:15;;;;;;;9.20;6.70;;;-2.20;79.60;;;;;;6152505;28;20190;-76
2021/03/07 04:34:17;;;;;;;19.80;8.73;;;-2.20;80.00;;;;;;6168684;28;20460;-77
2021/03/07 04:37:18;;;;;;;8.47;6.67;;;-2.30;80.20;;;;;;6150016;28;20054;-77
2021/03/07 04:40:20;;;;;;;9.00;6.57;;;-2.20;80.30;;;;;;6153548;28;20086;-77
2021/03/07 04:43:22;;;;;;;8.47;7.60;;;-2.30;80.20;;;;;;6173888;28;20062;-76
2021/03/07 04:46:25;;;;;;;8.27;6.77;;;-2.30;80.40;;;;;;6171349;28;20057;-77
2021/03/07 04:49:27;;;;;;;8.63;6.90;;;-2.30;80.70;;;;;;6173517;28;20047;-76
2021/03/07 04:52:28;;;;;;;12.33;8.03;;;-2.30;80.90;;;;;;6155808;28;20134;-77
2021/03/07 04:55:30;;;;;;;9.60;6.83;;;-2.30;81.30;;;;;;6149477;28;20128;-76
2021/03/07 04:58:33;;;;;;;8.37;6.80;;;-2.30;81.30;;;;;;6173075;28;20496;-77
2021/03/07 05:01:35;;;;;;;8.13;6.43;;;-2.30;81.90;;;;;;6154498;28;20382;-77
2021/03/07 05:04:37;;;;;;;9.40;5.63;;;-2.20;81.50;;;;;;6146947;28;20053;-76
2021/03/07 05:07:38;;;;;;;8.67;6.83;;;-2.20;81.10;;;;;;6152505;28;20047;-75
2021/03/07 05:10:40;;;;;;;9.43;7.03;;;-2.20;81.40;;;;;;6157544;28;20077;-76
2021/03/07 05:13:42;;;;;;;8.97;7.40;;;-2.20;81.40;;;;;;6172957;28;20513;-75
2021/03/07 05:16:43;;;;;;;9.07;7.27;;;-2.20;81.40;;;;;;6173086;28;20519;-76
2021/03/07 05:19:45;;;;;;;8.70;6.03;;;-2.20;81.00;;;;;;6155797;28;20519;-76
2021/03/07 05:22:46;;;;;;;8.67;6.17;;;-2.30;81.10;;;;;;6149903;28;20139;-77
2021/03/07 05:25:47;;;;;;;9.87;6.93;;;-2.40;81.20;;;;;;6164220;28;20110;-76
2021/03/07 05:28:50;;;;;;;12.13;7.43;;;-2.40;81.50;;;;;;6161413;28;20046;-76
2021/03/07 05:31:51;;;;;;;8.10;6.60;;;-2.40;81.80;;;;;;6159838;28;20071;-76
2021/03/07 05:34:52;;;;;;;8.80;6.13;;;-2.40;81.90;;;;;;6162246;28;20099;-76
2021/03/07 05:37:54;;;;;;;12.23;6.70;;;-2.40;81.60;;;;;;6158243;28;20040;-75
2021/03/07 05:40:55;;;;;;;9.17;7.53;;;-2.40;81.40;;;;;;6166696;28;20126;-76
2021/03/07 05:43:57;;;;;;;10.43;6.90;;;-2.40;81.80;;;;;;6156023;28;20134;-77
2021/03/07 05:46:59;;;;;;;9.57;6.73;;;-2.40;81.90;;;;;;6153606;29;20480;-76
2021/03/07 05:50:01;;;;;;;10.67;6.93;;;-2.30;82.20;;;;;;6160290;28;20130;-77
2021/03/07 05:53:02;;;;;;;11.23;6.50;;;-2.40;81.80;;;;;;6172450;28;20088;-76
2021/03/07 05:56:04;;;;;;;12.57;8.00;;;-2.40;82.10;;;;;;6154357;28;20591;-76
2021/03/07 05:59:07;;;;;;;10.63;7.23;;;-2.50;81.70;;;;;;6173066;28;20492;-76
2021/03/07 06:02:12;;;;;;;7.80;6.07;;;-2.50;81.80;;;;;;6177152;28;20105;-76
2021/03/07 06:05:14;;;;;;;8.27;5.77;;;-2.50;81.90;;;;;;6177062;28;20513;-76
2021/03/07 06:08:16;;;;;;;8.23;6.57;;;-2.50;82.30;;;;;;6169081;28;20118;-77
2021/03/07 06:11:31;;;;;;;11.90;6.87;;;-2.50;82.30;;;;;;6158633;28;20133;-77
2021/03/07 06:14:34;;;;;;;8.70;6.67;;;-2.50;82.40;;;;;;6158965;28;20051;-76
2021/03/07 06:17:40;;;;;;;8.83;6.37;;;-2.50;82.30;;;;;;6159894;28;20043;-76
2021/03/07 06:20:42;;;;;;;13.50;7.77;;;-2.50;82.20;;;;;;6129169;28;20051;-76
2021/03/07 06:23:43;;;;;;;10.40;7.20;;;-2.50;82.00;;;;;;6157492;28;20050;-75
2021/03/07 06:27:06;;;;;;;11.67;7.33;;;-2.50;82.00;;;;;;6154183;28;20539;-77
2021/03/07 06:30:09;;;;;;;16.10;7.60;;;-2.50;82.00;;;;;;6163132;28;20054;-75
2021/03/07 06:33:11;;;;;;;8.97;6.97;;;-2.40;82.20;;;;;;6175682;28;20046;-77
2021/03/07 06:36:16;;;;;;;9.47;6.80;;;-2.40;82.30;;;;;;6172726;28;20512;-76
2021/03/07 06:39:17;;;;;;;11.40;8.13;;;-2.30;82.50;;;;;;6171147;28;20566;-76
2021/03/07 06:42:20;;;;;;;8.47;6.90;;;-2.30;82.30;;;;;;6173731;28;20055;-77
2021/03/07 06:45:22;;;;;;;7.80;6.13;;;-2.20;82.60;;;;;;6170440;28;20058;-77
2021/03/07 06:48:34;;;;;;;14.10;6.97;;;-2.20;82.20;;;;;;6206081;23;20046;-78
2021/03/07 06:51:36;;;;;;;9.50;5.90;;;-2.10;82.20;;;;;;6199248;28;20066;-78
2021/03/07 06:54:37;;;;;;;8.83;7.10;;;-2.00;82.10;;;;;;6194570;28;20050;-79
2021/03/07 06:57:39;;;;;;;9.47;6.37;;;-1.90;82.30;;;;;;6193887;28;20039;-76
2021/03/07 07:00:41;;;;;;;6.70;6.00;;;-1.80;82.20;;;;;;6201002;28;20050;-78
2021/03/07 07:03:57;;;;;;;10.47;6.03;;;-1.60;82.40;;;;;;6201691;28;20527;-77
2021/03/07 07:07:03;;;;;;;10.27;6.77;;;-1.40;82.10;;;;;;6185729;28;20051;-78
2021/03/07 07:10:07;;;;;;;8.27;7.30;;;-1.20;82.00;;;;;;6183939;28;20043;-74
2021/03/07 07:13:09;;;;;;;9.40;7.17;;;-1.00;81.70;;;;;;6203440;28;20038;-74
2021/03/07 07:16:12;;;;;;;9.83;7.57;;;-0.80;81.20;;;;;;6199190;28;20035;-74
2021/03/07 07:19:14;;;;;;;6.27;5.37;;;-0.60;80.50;;;;;;6193782;28;20062;-76
2021/03/07 07:22:17;;;;;;;9.73;6.47;;;-0.40;79.80;;;;;;6205484;28;20105;-75
2021/03/07 07:25:19;;;;;;;9.57;6.03;;;-0.10;79.80;;;;;;6196592;28;20075;-77
2021/03/07 07:28:21;;;;;;;8.20;6.43;;;0.20;79.40;;;;;;6178168;28;20227;-77
2021/03/07 07:31:33;;;;;;;12.00;9.63;;;0.50;78.70;;;;;;6181135;28;20059;-78
2021/03/07 07:34:38;;;;;;;14.27;9.57;;;0.80;77.90;;;;;;6177798;28;20094;-77
2021/03/07 07:37:46;;;;;;;11.70;9.10;;;1.20;76.50;;;;;;6180420;28;20043;-78
2021/03/07 07:40:48;;;;;;;9.67;8.40;;;1.50;74.90;;;;;;6180330;28;20621;-77
2021/03/07 07:43:50;;;;;;;11.03;7.90;;;1.80;73.40;;;;;;6172434;28;20106;-77
2021/03/07 07:46:57;;;;;;;9.27;6.43;;;2.30;71.10;;;;;;6177733;28;20057;-77
2021/03/07 07:49:58;;;;;;;7.50;6.47;;;2.50;69.30;;;;;;6178099;28;20535;-76
2021/03/07 07:53:01;;;;;;;12.90;8.37;;;2.80;67.30;;;;;;6178884;28;20044;-78
2021/03/07 07:56:03;;;;;;;11.00;8.77;;;3.00;66.40;;;;;;6177122;28;20043;-76
2021/03/07 07:59:05;;;;;;;9.33;7.77;;;3.20;65.30;;;;;;6179190;28;20086;-78
2021/03/07 08:02:07;;;;;;;12.50;9.57;;;3.50;64.20;;;;;;6184236;28;20081;-77
2021/03/07 08:05:43;;;;;;;14.90;9.20;;;3.60;63.10;;;;;;6184688;28;20107;-76
2021/03/07 08:08:45;;;;;;;11.70;7.53;;;3.80;62.50;;;;;;6185019;28;20103;-78
2021/03/07 08:11:46;;;;;;;10.23;8.13;;;4.00;61.30;;;;;;6176502;28;20047;-78
2021/03/07 08:14:47;;;;;;;12.70;10.13;;;4.20;62.00;;;;;;6167047;28;20059;-78
2021/03/07 08:17:53;;;;;;;12.32;8.30;;;5.10;75.90;;;;;;6183400;28;20039;-79
2021/03/07 08:21:05;;;;;;;8.75;7.85;;;5.80;64.80;;;;;;6184032;28;20046;-78
2021/03/07 08:24:09;;;;;;;9.65;8.50;;;5.80;58.90;;;;;;6184735;28;20432;-76
2021/03/07 08:27:10;;;;;;;11.30;8.82;;;5.70;58.40;;;;;;6204278;28;20035;-77
2021/03/07 08:30:15;;;;;;;9.15;7.15;;;5.60;57.00;;;;;;6198258;28;20057;-79
2021/03/07 08:33:25;;;;;;;10.35;9.02;;;5.60;56.60;;;;;;6184397;28;20070;-78
2021/03/07 08:36:26;;;;;;;10.15;7.85;;;5.80;55.70;;;;;;6183193;28;20119;-79
2021/03/07 08:39:29;;;;;;;10.35;7.32;;;5.90;56.20;;;;;;6184482;28;20061;-77
2021/03/07 08:42:30;;;;;;;13.85;8.15;;;5.90;55.20;;;;;;6184627;28;20050;-79
2021/03/07 08:45:32;;;;;;;13.02;7.82;;;6.00;54.20;;;;;;6183910;28;20137;-78
2021/03/07 08:48:35;;;;;;;11.27;8.07;;;6.10;53.60;;;;;;6182303;28;20504;-78
2021/03/07 08:51:38;;;;;;;9.52;7.63;;;6.20;53.60;;;;;;6186147;28;20059;-79
2021/03/07 08:54:39;;;;;;;8.05;7.05;;;6.40;52.90;;;;;;6174800;28;20043;-79
2021/03/07 08:57:44;;;;;;;18.45;9.15;;;6.60;52.40;;;;;;6183057;28;20038;-79
2021/03/07 09:00:47;;;;;;;10.35;7.32;;;6.80;52.20;;;;;;6185975;28;20051;-79
2021/03/07 09:03:54;;;;;;;9.02;6.78;;;6.90;51.20;;;;;;6188232;28;20050;-78
2021/03/07 09:06:55;;;;;;;10.00;7.75;;;7.10;50.80;;;;;;6186132;28;20074;-80
2021/03/07 09:09:56;;;;;;;8.73;7.03;;;7.50;50.30;;;;;;6185950;28;20062;-79
2021/03/07 09:13:10;;;;;;;9.30;8.30;;;7.70;50.10;;;;;;6185291;28;20042;-78
2021/03/07 09:16:11;;;;;;;7.63;6.68;;;8.10;49.20;;;;;;6184766;28;20412;-79
2021/03/07 09:19:21;;;;;;;8.88;7.70;;;8.60;48.40;;;;;;6180976;28;20098;-78
2021/03/07 09:22:24;;;;;;;7.45;6.38;;;8.80;47.40;;;;;;6185624;28;20049;-79
2021/03/07 09:25:27;;;;;;;10.13;7.25;;;9.00;46.50;;;;;;6183760;28;20067;-79
2021/03/07 09:28:34;;;;;;;11.35;9.00;;;8.90;46.10;;;;;;6186522;28;20520;-79
2021/03/07 09:31:36;;;;;;;8.30;7.32;;;9.00;46.10;;;;;;6186920;28;20468;-78
2021/03/07 09:34:39;;;;;;;9.00;7.30;;;9.20;45.60;;;;;;6188222;28;20047;-79
2021/03/07 09:37:40;;;;;;;9.77;8.88;;;9.40;44.70;;;;;;6186271;28;20047;-78
2021/03/07 09:40:44;;;;;;;12.32;8.10;;;9.30;45.30;;;;;;6185847;28;20042;-78
2021/03/07 09:43:46;;;;;;;12.07;9.05;;;9.10;45.20;;;;;;6187090;28;20039;-79
2021/03/07 09:46:50;;;;;;;10.48;9.38;;;8.90;45.50;;;;;;6187563;28;20071;-79
2021/03/07 09:49:52;;;;;;;9.73;8.73;;;8.70;46.30;;;;;;6185078;28;20058;-80
2021/03/07 09:52:54;;;;;;;9.80;8.27;;;8.70;46.30;;;;;;6185396;28;20043;-78
2021/03/07 09:55:55;;;;;;;11.13;7.82;;;8.60;47.20;;;;;;6167838;28;20133;-79
2021/03/07 09:59:11;;;;;;;10.93;8.65;;;8.60;47.30;;;;;;6186029;28;20143;-77
2021/03/07 10:02:12;;;;;;;15.13;9.35;;;8.60;47.00;;;;;;6186495;28;20051;-78
2021/03/07 10:05:15;;;;;;;138.25;72.60;;;8.60;47.60;;;;;;6176197;28;20107;-79
2021/03/07 10:08:23;;;;;;;13.93;10.63;;;8.60;47.00;;;;;;6165890;28;20042;-78
2021/03/07 10:11:26;;;;;;;13.50;7.82;;;8.50;47.40;;;;;;6183952;28;20051;-79
2021/03/07 10:14:29;;;;;;;14.20;11.10;;;8.40;48.00;;;;;;6193543;28;20039;-79
2021/03/07 10:17:35;;;;;;;9.43;8.43;;;8.50;47.90;;;;;;6187871;28;20066;-77
2021/03/07 10:20:39;;;;;;;13.10;10.45;;;8.60;47.90;;;;;;6192412;28;20102;-78
2021/03/07 10:23:40;;;;;;;12.13;9.15;;;8.70;47.20;;;;;;6191364;28;20038;-78
2021/03/07 10:26:43;;;;;;;8.90;7.47;;;8.70;47.00;;;;;;6190443;28;20114;-79
2021/03/07 10:29:47;;;;;;;10.18;9.07;;;8.70;46.60;;;;;;6186258;28;20401;-76
2021/03/07 10:33:09;;;;;;;8.35;7.55;;;8.80;46.90;;;;;;6187002;28;20039;-79
2021/03/07 10:36:15;;;;;;;9.48;8.52;;;9.20;46.50;;;;;;6188745;28;20144;-78
2021/03/07 10:39:16;;;;;;;13.48;12.27;;;9.40;46.20;;;;;;6184884;28;20066;-78
2021/03/07 10:42:19;;;;;;;13.77;9.27;;;9.70;45.40;;;;;;6185111;28;20499;-76
2021/03/07 10:45:22;;;;;;;8.93;8.02;;;10.00;45.00;;;;;;6185260;28;20053;-79
2021/03/07 10:48:31;;;;;;;9.50;7.22;;;10.40;43.80;;;;;;6186909;28;20042;-79
2021/03/07 10:51:34;;;;;;;10.02;8.32;;;10.70;42.70;;;;;;6187922;28;20051;-78
2021/03/07 10:54:35;;;;;;;11.15;7.97;;;10.80;42.10;;;;;;6191256;28;20101;-78
2021/03/07 10:57:36;;;;;;;14.60;8.52;;;10.60;42.50;;;;;;6181216;28;20051;-77
2021/03/07 11:00:38;;;;;;;10.98;8.40;;;10.20;43.60;;;;;;6174270;28;20055;-78
2021/03/07 11:03:39;;;;;;;11.95;8.27;;;10.20;44.20;;;;;;6190280;28;20046;-78
2021/03/07 11:06:42;;;;;;;8.23;6.75;;;10.40;43.90;;;;;;6192883;28;20047;-79
2021/03/07 11:09:43;;;;;;;10.55;9.23;;;10.90;43.10;;;;;;6179015;28;20093;-77
2021/03/07 11:12:45;;;;;;;10.32;8.68;;;11.20;42.70;;;;;;6190767;28;20523;-78
2021/03/07 11:15:47;;;;;;;10.02;8.48;;;11.50;41.20;;;;;;6176512;28;20412;-79
2021/03/07 11:18:48;;;;;;;10.27;7.93;;;11.60;41.50;;;;;;6178520;28;20108;-80
2021/03/07 11:21:50;;;;;;;10.02;8.95;;;11.50;41.60;;;;;;6185552;28;20070;-78
2021/03/07 11:24:52;;;;;;;11.73;8.63;;;11.60;44.90;;;;;;6187815;28;20053;-79
2021/03/07 11:27:53;;;;;;;8.82;7.93;;;12.00;44.50;;;;;;6186624;28;20039;-79
2021/03/07 11:30:55;;;;;;;9.02;8.18;;;12.30;42.70;;;;;;6184645;28;20412;-80
2021/03/07 11:33:56;;;;;;;9.55;8.23;;;12.50;42.90;;;;;;6194054;28;20065;-77
2021/03/07 11:36:58;;;;;;;8.45;6.68;;;12.80;42.60;;;;;;6199574;28;20031;-80
2021/03/07 11:40:00;;;;;;;10.13;9.13;;;13.00;45.30;;;;;;6186675;28;20043;-79
2021/03/07 11:43:01;;;;;;;13.25;7.18;;;13.20;40.30;;;;;;6188917;28;20054;-80
2021/03/07 11:46:03;;;;;;;14.63;9.88;;;13.40;41.60;;;;;;6188232;28;20054;-79
2021/03/07 11:49:04;;;;;;;11.85;8.68;;;13.10;41.40;;;;;;6171327;28;20520;-81
2021/03/07 11:52:07;;;;;;;11.30;8.43;;;13.00;41.40;;;;;;6184610;28;20066;-79
2021/03/07 11:55:09;;;;;;;10.65;9.07;;;13.10;40.50;;;;;;6187265;28;20078;-78
2021/03/07 11:58:11;;;;;;;8.23;7.40;;;13.40;40.00;;;;;;6183864;28;20050;-79
2021/03/07 12:01:12;;;;;;;9.57;8.55;;;13.60;40.80;;;;;;6186539;28;20068;-79
2021/03/07 12:04:13;;;;;;;9.07;7.65;;;13.70;39.10;;;;;;6186739;28;20065;-77
2021/03/07 12:07:16;;;;;;;9.15;8.27;;;13.60;41.60;;;;;;6172636;28;20054;-80
2021/03/07 12:10:19;;;;;;;11.20;8.38;;;13.40;40.50;;;;;;6200280;28;20050;-76
2021/03/07 12:13:20;;;;;;;10.35;9.23;;;13.20;40.50;;;;;;6192000;28;20039;-78
2021/03/07 12:16:21;;;;;;;11.18;10.07;;;13.30;40.10;;;;;;6165209;28;20055;-79
2021/03/07 12:19:23;;;;;;;10.02;8.88;;;13.50;39.50;;;;;;6182896;28;20046;-81
2021/03/07 12:22:25;;;;;;;10.68;9.57;;;13.40;39.60;;;;;;6181720;28;20051;-78
2021/03/07 12:25:27;;;;;;;11.23;9.32;;;13.50;39.90;;;;;;6183787;28;20042;-79
2021/03/07 12:28:28;;;;;;;12.93;9.52;;;13.50;39.20;;;;;;6186492;28;20054;-78
2021/03/07 12:31:29;;;;;;;9.55;7.63;;;13.80;38.80;;;;;;6183966;28;20053;-79
2021/03/07 12:34:32;;;;;;;10.70;8.95;;;13.30;41.10;;;;;;6186816;28;20050;-79
2021/03/07 12:37:35;;;;;;;9.23;8.00;;;13.40;39.60;;;;;;6188301;28;20050;-80
2021/03/07 12:40:36;;;;;;;11.73;8.35;;;13.60;39.60;;;;;;6181670;28;20051;-78
2021/03/07 12:43:37;;;;;;;11.23;9.10;;;13.80;40.00;;;;;;6171453;28;20474;-80
2021/03/07 12:46:39;;;;;;;11.70;10.30;;;13.80;39.40;;;;;;6162177;28;20070;-80
2021/03/07 12:49:40;;;;;;;11.13;9.80;;;13.80;37.90;;;;;;6182995;28;20524;-79
2021/03/07 12:52:42;;;;;;;10.13;9.10;;;13.80;37.60;;;;;;6175960;28;20121;-79
2021/03/07 12:55:44;;;;;;;11.85;9.90;;;13.60;38.50;;;;;;6164455;28;20047;-79
2021/03/07 12:58:45;;;;;;;12.15;10.15;;;13.50;38.40;;;;;;6181862;28;20366;-80
2021/03/07 13:01:46;;;;;;;10.38;9.35;;;13.40;39.00;;;;;;6182394;28;20066;-80
2021/03/07 13:04:47;;;;;;;11.05;9.50;;;13.40;39.40;;;;;;6184813;28;20055;-80
2021/03/07 13:07:50;;;;;;;10.77;8.48;;;13.40;38.20;;;;;;6181472;28;20508;-80
2021/03/07 13:10:51;;;;;;;10.25;9.25;;;13.50;38.50;;;;;;6181401;28;20055;-80
2021/03/07 13:13:52;;;;;;;9.13;8.23;;;13.50;38.20;;;;;;6179224;28;20487;-78
2021/03/07 13:16:54;;;;;;;11.65;9.23;;;13.70;37.50;;;;;;6175413;28;20067;-80
2021/03/07 13:19:55;;;;;;;10.90;9.77;;;13.50;37.60;;;;;;6181727;28;20049;-80
2021/03/07 13:22:57;;;;;;;11.65;10.45;;;13.50;38.20;;;;;;6184147;28;20548;-79
2021/03/07 13:25:59;;;;;;;10.15;9.15;;;13.50;37.80;;;;;;6181010;28;20074;-81
2021/03/07 13:29:00;;;;;;;23.80;17.98;;;13.50;38.50;;;;;;6180682;28;20071;-77
2021/03/07 13:32:01;;;;;;;12.25;10.95;;;13.60;38.20;;;;;;6180226;28;20101;-79
2021/03/07 13:35:03;;;;;;;14.05;9.40;;;13.60;38.10;;;;;;6179099;28;20051;-80
2021/03/07 13:38:06;;;;;;;11.15;10.00;;;13.50;38.30;;;;;;6173635;28;20139;-81
2021/03/07 13:41:07;;;;;;;12.80;11.50;;;13.70;38.90;;;;;;6174985;28;20043;-81
2021/03/07 13:44:08;;;;;;;11.88;10.02;;;13.90;38.80;;;;;;6177316;28;20054;-80
2021/03/07 13:47:10;;;;;;;12.02;9.85;;;14.10;38.40;;;;;;6181321;28;20115;-80
2021/03/07 13:50:12;;;;;;;20.85;18.85;;;14.20;36.90;;;;;;6180195;28;20044;-81
2021/03/07 13:53:14;;;;;;;10.73;9.63;;;14.00;37.80;;;;;;6173793;28;20046;-82
2021/03/07 13:56:15;;;;;;;14.30;10.73;;;14.00;37.80;;;;;;6184698;28;20047;-82
2021/03/07 13:59:17;;;;;;;13.70;10.45;;;14.10;37.70;;;;;;6179539;28;20051;-81
2021/03/07 14:02:19;;;;;;;10.68;9.40;;;14.10;37.60;;;;;;6177918;28;20142;-81
2021/03/07 14:05:21;;;;;;;14.40;10.68;;;14.10;37.70;;;;;;6178435;28;20057;-82
2021/03/07 14:08:23;;;;;;;15.05;10.68;;;14.10;37.70;;;;;;6193795;28;20058;-79
2021/03/07 14:11:25;;;;;;;10.75;9.02;;;14.10;37.70;;;;;;6181571;28;20464;-80
2021/03/07 14:14:26;;;;;;;12.65;10.68;;;13.90;37.60;;;;;;6184797;28;20053;-81
2021/03/07 14:17:27;;;;;;;10.35;9.27;;;13.90;37.90;;;;;;6178358;28;20106;-81
2021/03/07 14:20:29;;;;;;;11.55;9.90;;;13.90;37.70;;;;;;6184429;28;20070;-81
2021/03/07 14:23:31;;;;;;;11.50;9.32;;;13.80;38.10;;;;;;6178712;28;20420;-82
2021/03/07 14:26:33;;;;;;;10.48;9.45;;;14.00;38.10;;;;;;6179567;28;20053;-80
2021/03/07 14:29:34;;;;;;;13.38;10.43;;;14.00;37.10;;;;;;6176611;28;20051;-80
2021/03/07 14:32:36;;;;;;;11.50;10.40;;;14.10;37.70;;;;;;6177549;28;20062;-78
2021/03/07 14:35:37;;;;;;;11.27;9.93;;;14.10;38.00;;;;;;6179261;28;20058;-80
2021/03/07 14:38:39;;;;;;;14.93;9.30;;;14.10;38.30;;;;;;6181782;28;20556;-81
2021/03/07 14:41:41;;;;;;;12.30;9.77;;;13.90;38.00;;;;;;6179196;28;20485;-81
2021/03/07 14:44:43;;;;;;;10.30;8.95;;;13.90;38.00;;;;;;6182722;28;20065;-80
2021/03/07 14:47:45;;;;;;;13.05;10.55;;;13.90;38.30;;;;;;6165196;28;20039;-80
2021/03/07 14:50:46;;;;;;;14.73;10.40;;;14.00;37.20;;;;;;6181399;28;20050;-80
2021/03/07 14:53:48;;;;;;;11.98;9.63;;;14.00;37.00;;;;;;6182321;28;20130;-80
2021/03/07 14:56:49;;;;;;;12.07;9.63;;;13.90;37.40;;;;;;6180548;28;20539;-80
2021/03/07 14:59:51;;;;;;;11.90;9.35;;;13.90;37.30;;;;;;6181600;28;20074;-78
2021/03/07 15:02:52;;;;;;;14.73;10.60;;;13.80;37.40;;;;;;6189085;28;20064;-77
2021/03/07 15:05:53;;;;;;;14.65;10.85;;;13.80;37.40;;;;;;6182493;28;20400;-80
2021/03/07 15:08:56;;;;;;;12.65;9.23;;;13.90;37.50;;;;;;6178423;28;20045;-79
2021/03/07 15:11:57;;;;;;;11.57;10.32;;;13.90;37.90;;;;;;6180992;28;20554;-79
2021/03/07 15:14:59;;;;;;;13.60;11.75;;;13.90;38.10;;;;;;6180794;28;20070;-80
2021/03/07 15:18:00;;;;;;;11.75;9.60;;;13.80;37.50;;;;;;6180000;28;20476;-80
2021/03/07 15:21:02;;;;;;;11.57;10.45;;;13.60;37.80;;;;;;6181466;28;20043;-80
2021/03/07 15:24:05;;;;;;;13.25;10.38;;;13.50;38.50;;;;;;6180729;28;20114;-80
2021/03/07 15:27:07;;;;;;;12.65;10.07;;;13.50;38.40;;;;;;6180938;28;20051;-80
2021/03/07 15:30:10;;;;;;;11.95;10.40;;;13.50;38.20;;;;;;6181606;28;20824;-79
2021/03/07 15:33:12;;;;;;;12.48;10.45;;;13.40;38.30;;;;;;6177890;28;20055;-78
2021/03/07 15:36:15;;;;;;;10.85;7.20;;;13.20;38.10;;;;;;6177796;28;20113;-81
2021/03/07 15:39:17;;;;;;;8.10;6.55;;;12.80;48.70;;;;;;6181950;28;20055;-81
2021/03/07 15:42:18;;;;;;;14.13;11.05;;;12.70;50.20;;;;;;6171860;28;20066;-81